Time;durP1;ratioP1;P1;durP2;ratioP2;P2;SDS_P1;SDS_P2;PMS_P1;PMS_P2;Temp;Humidity;BMP_temperature;BMP_pressure;BME280_temperature;BME280_humidity;BME280_pressure;Samples;Min_cycle;Max_cycle;Signal;HPM_P1;HPM_P2
2022/12/22 03:26:14;;;;;;;;;3.67;0.00;;;;;13.02;82.57;99966.38;5035654;28;45353;-56
2022/12/22 03:28:40;;;;;;;;;0.00;0.00;;;;;13.01;82.14;99964.66;5035981;28;45306;-58
2022/12/22 03:31:05;;;;;;;;;1.33;1.00;;;;;13.00;81.46;99970.97;5036093;28;45220;-58
2022/12/22 03:33:32;;;;;;;;;2.00;1.00;;;;;12.98;83.23;99971.09;5036077;28;45297;-57
2022/12/22 03:35:58;;;;;;;;;2.33;0.33;;;;;12.96;83.10;99970.34;5035619;28;45555;-58
2022/12/22 03:38:26;;;;;;;;;1.00;1.00;;;;;12.95;83.12;99976.66;5018200;28;45464;-56
2022/12/22 03:40:52;;;;;;;;;2.00;0.67;;;;;12.75;82.95;99955.94;5035912;28;45435;-57
2022/12/22 03:49:08;;;;;;;;;2.67;1.00;;;;;12.89;82.06;99974.47;5035418;28;45288;-58
2022/12/22 03:51:32;;;;;;;;;1.00;0.00;;;;;12.85;82.18;99940.09;5035425;28;45422;-56
2022/12/22 03:53:58;;;;;;;;;2.00;1.00;;;;;12.81;81.14;99944.84;5035723;28;45534;-58
2022/12/22 03:56:24;;;;;;;;;4.67;2.00;;;;;12.83;81.97;99961.56;5035054;28;45922;-56
2022/12/22 03:58:50;;;;;;;;;1.00;1.00;;;;;12.84;81.25;99951.75;5032959;28;45322;-57
2022/12/22 04:01:15;;;;;;;;;3.67;1.00;;;;;12.85;81.55;99951.63;4997850;28;45243;-58
2022/12/22 04:03:40;;;;;;;;;2.00;0.00;;;;;12.84;82.34;99968.59;5016119;28;45233;-56
2022/12/22 04:06:06;;;;;;;;;1.00;0.67;;;;;12.78;81.49;99958.41;5015279;28;47645;-59
2022/12/22 04:08:31;;;;;;;;;0.33;0.00;;;;;12.78;81.51;99969.09;5015288;28;45253;-57
2022/12/22 04:13:40;;;;;;;;;0.67;0.67;;;;;12.78;81.19;99981.56;5018616;28;45411;-57
2022/12/22 04:16:06;;;;;;;;;2.33;2.00;;;;;12.78;81.73;100005.59;5018356;28;46128;-57
2022/12/22 04:18:31;;;;;;;;;1.00;1.00;;;;;12.76;82.34;100013.72;5000850;28;45608;-57
2022/12/22 04:20:57;;;;;;;;;3.00;2.00;;;;;12.74;81.57;100012.09;5018605;28;45312;-57
2022/12/22 04:23:22;;;;;;;;;4.00;1.00;;;;;12.69;81.64;100015.97;5018935;28;45170;-57
2022/12/22 04:25:47;;;;;;;;;4.00;2.67;;;;;12.76;81.80;100036.84;5000442;28;46722;-57
2022/12/22 04:28:13;;;;;;;;;3.33;0.67;;;;;12.78;81.20;100062.47;5018829;28;45459;-58
2022/12/22 04:30:38;;;;;;;;;0.00;0.00;;;;;12.72;81.63;100057.56;5018273;28;51368;-56
2022/12/22 04:33:03;;;;;;;;;0.00;0.00;;;;;12.80;80.75;100065.88;5018703;28;45569;-56
2022/12/22 04:35:29;;;;;;;;;2.00;1.00;;;;;12.84;81.51;100074.50;5018083;28;45328;-56
2022/12/22 04:37:54;;;;;;;;;3.00;1.00;;;;;12.85;81.66;100077.06;5018334;28;45551;-57
2022/12/22 04:40:20;;;;;;;;;4.67;0.00;;;;;12.85;81.46;100086.88;5018624;28;45342;-58
2022/12/22 04:42:45;;;;;;;;;1.67;1.00;;;;;12.86;80.45;100080.56;5019046;28;45320;-58
2022/12/22 04:45:11;;;;;;;;;0.00;0.00;;;;;12.86;80.54;100104.59;4999878;28;47587;-57
2022/12/22 04:47:36;;;;;;;;;0.00;0.00;;;;;12.85;80.74;100108.22;5018241;28;45380;-56
2022/12/22 04:50:02;;;;;;;;;0.00;0.00;;;;;12.87;80.60;100125.81;5018405;28;45464;-58
2022/12/22 04:52:27;;;;;;;;;2.00;0.33;;;;;12.87;80.89;100135.66;5018554;28;45930;-57
2022/12/22 04:54:53;;;;;;;;;0.00;0.00;;;;;12.87;81.12;100141.84;5018099;28;45617;-57
2022/12/22 04:57:20;;;;;;;;;0.00;0.00;;;;;12.89;80.99;100153.28;5018320;28;45351;-58
2022/12/22 04:59:46;;;;;;;;;2.67;0.00;;;;;12.89;80.69;100147.94;5018292;28;45332;-57
2022/12/22 05:02:11;;;;;;;;;0.00;0.00;;;;;12.86;80.51;100150.81;5000606;28;45259;-57
2022/12/22 05:04:37;;;;;;;;;0.00;0.00;;;;;12.84;79.66;100166.09;5018092;28;45322;-57
2022/12/22 05:07:03;;;;;;;;;1.00;0.00;;;;;12.62;80.96;100140.09;5000468;28;45301;-56
2022/12/22 05:09:29;;;;;;;;;0.00;0.00;;;;;12.81;80.43;100182.31;5018222;28;45411;-58
2022/12/22 05:11:54;;;;;;;;;2.00;0.00;;;;;12.79;80.65;100186.94;5036766;28;45521;-57
2022/12/22 05:14:20;;;;;;;;;2.00;0.00;;;;;12.77;81.12;100183.53;5037675;28;46350;-57
2022/12/22 05:16:45;;;;;;;;;0.00;0.00;;;;;12.77;80.13;100194.19;5020034;28;45459;-57
2022/12/22 05:19:11;;;;;;;;;0.00;0.00;;;;;12.75;81.07;100195.25;5037491;28;46723;-58
2022/12/22 05:21:36;;;;;;;;;0.00;0.00;;;;;12.70;81.08;100203.59;5037731;28;45549;-58
2022/12/22 05:24:02;;;;;;;;;0.00;0.00;;;;;12.73;80.75;100214.03;5036473;28;45459;-57
2022/12/22 05:26:27;;;;;;;;;0.00;0.00;;;;;12.70;79.93;100203.59;5037327;28;45423;-57
2022/12/22 05:28:53;;;;;;;;;0.00;0.00;;;;;12.65;80.72;100211.91;5037684;28;45309;-57
2022/12/22 05:31:23;;;;;;;;;0.00;0.00;;;;;12.73;81.18;100224.69;5038247;28;45429;-57
2022/12/22 05:33:49;;;;;;;;;1.00;0.00;;;;;12.76;79.97;100223.63;5037440;28;46263;-58
2022/12/22 05:36:15;;;;;;;;;0.00;0.00;;;;;12.76;79.84;100227.19;5037160;28;45411;-59
2022/12/22 05:38:41;;;;;;;;;0.00;0.00;;;;;12.75;79.29;100233.44;5037449;28;45331;-59
2022/12/22 05:41:06;;;;;;;;;0.00;0.00;;;;;12.75;78.99;100232.59;5019671;28;45336;-57
2022/12/22 05:43:33;;;;;;;;;0.00;0.00;;;;;12.73;78.66;100230.03;5036983;28;47078;-57
2022/12/22 05:46:04;;;;;;;;;0.00;0.00;;;;;12.72;79.17;100241.69;5018960;28;45466;-58
2022/12/22 05:48:30;;;;;;;;;1.00;0.00;;;;;12.64;79.31;100231.56;5036906;28;45407;-58
2022/12/22 05:50:55;;;;;;;;;0.00;0.00;;;;;12.71;79.58;100250.66;5037257;28;45536;-58
2022/12/22 05:53:21;;;;;;;;;0.00;0.00;;;;;12.70;78.28;100260.47;5037116;28;45413;-57
2022/12/22 05:55:46;;;;;;;;;1.00;0.00;;;;;12.69;79.14;100256.09;5037428;28;45437;-58
2022/12/22 05:58:12;;;;;;;;;0.33;0.00;;;;;12.73;79.19;100264.72;5037100;28;45446;-57
2022/12/22 06:00:37;;;;;;;;;0.00;0.00;;;;;12.68;79.37;100254.38;5020059;28;45446;-57
2022/12/22 06:03:03;;;;;;;;;0.00;0.00;;;;;12.74;79.49;100263.75;5016748;28;45908;-57
2022/12/22 06:05:28;;;;;;;;;0.00;0.00;;;;;12.75;79.47;100264.63;5016810;28;45372;-57
2022/12/22 06:07:53;;;;;;;;;0.00;0.00;;;;;12.72;80.16;100271.03;4999152;28;45612;-57
2022/12/22 06:10:19;;;;;;;;;0.00;0.00;;;;;12.68;80.02;100269.53;5016620;28;45689;-57
2022/12/22 06:12:44;;;;;;;;;0.00;0.00;;;;;12.67;80.42;100278.50;4998714;28;47242;-58
2022/12/22 06:15:11;;;;;;;;;0.00;0.00;;;;;12.60;81.02;100287.88;4999033;28;45293;-57
2022/12/22 06:17:37;;;;;;;;;0.00;0.00;;;;;12.50;81.59;100270.81;5016508;28;45407;-57
2022/12/22 06:20:04;;;;;;;;;0.00;0.00;;;;;12.62;81.77;100292.16;5016896;28;45199;-57
2022/12/22 06:22:29;;;;;;;;;0.00;0.00;;;;;12.58;82.64;100300.47;5016648;28;46206;-58
2022/12/22 06:24:54;;;;;;;;;0.00;0.00;;;;;12.56;83.75;100310.41;4998690;28;45376;-56
2022/12/22 06:27:20;;;;;;;;;0.00;0.00;;;;;12.52;84.98;100322.25;5017114;28;45343;-59
2022/12/22 06:29:45;;;;;;;;;1.00;0.00;;;;;12.47;85.60;100319.03;5016689;28;45399;-58
2022/12/22 06:32:13;;;;;;;;;0.00;0.00;;;;;12.39;86.53;100328.41;5016648;28;46875;-57
2022/12/22 06:34:38;;;;;;;;;0.00;0.00;;;;;12.31;88.90;100335.22;5016323;28;45186;-58
2022/12/22 06:37:04;;;;;;;;;0.00;0.00;;;;;12.19;91.68;100331.56;5016531;28;45321;-57
2022/12/22 06:39:30;;;;;;;;;1.00;0.00;;;;;12.10;91.28;100329.50;4999229;28;45522;-59
2022/12/22 06:44:39;;;;;;;;;0.00;0.00;;;;;12.05;90.38;100339.63;5016819;28;45429;-59
2022/12/22 06:47:04;;;;;;;;;1.00;0.00;;;;;12.00;90.89;100347.94;5016482;28;45277;-57
2022/12/22 06:49:30;;;;;;;;;0.00;0.00;;;;;12.00;90.70;100352.41;5016643;28;45316;-58
2022/12/22 06:51:55;;;;;;;;;0.00;0.00;;;;;12.02;91.74;100350.50;5016187;28;46331;-57
2022/12/22 06:54:20;;;;;;;;;0.00;0.00;;;;;11.96;91.32;100341.06;5016121;28;52194;-59
2022/12/22 06:56:46;;;;;;;;;0.00;0.00;;;;;11.97;92.06;100355.25;5016225;28;45305;-57
2022/12/22 06:59:11;;;;;;;;;0.00;0.00;;;;;11.89;91.69;100346.94;5016025;28;45161;-59
2022/12/22 07:01:37;;;;;;;;;0.00;0.00;;;;;11.94;91.57;100368.78;5015752;28;46446;-58
2022/12/22 07:04:02;;;;;;;;;0.00;0.00;;;;;11.93;91.39;100367.94;5016204;28;45418;-58
2022/12/22 07:06:27;;;;;;;;;1.00;0.00;;;;;11.93;90.60;100373.25;4997829;28;45272;-57
2022/12/22 07:08:53;;;;;;;;;1.00;1.00;;;;;11.92;91.07;100370.69;5016596;28;45235;-58
2022/12/22 07:11:18;;;;;;;;;2.00;1.00;;;;;11.91;91.08;100361.84;5029566;28;45545;-58
2022/12/22 07:13:44;;;;;;;;;3.00;1.00;;;;;11.91;91.00;100369.84;5035784;28;45454;-59
2022/12/22 07:16:10;;;;;;;;;4.67;1.67;;;;;11.86;91.03;100371.97;5035703;28;45401;-57
2022/12/22 07:18:39;;;;;;;;;7.33;2.00;;;;;11.87;91.22;100372.81;5035681;28;45653;-57
2022/12/22 07:21:07;;;;;;;;;1.67;1.00;;;;;11.86;91.04;100366.63;5017101;28;46288;-58
2022/12/22 07:23:34;;;;;;;;;7.67;2.67;;;;;11.90;91.41;100381.47;5035273;28;45317;-58
2022/12/22 07:26:00;;;;;;;;;3.67;3.67;;;;;11.93;91.20;100385.72;5035494;28;45482;-58
2022/12/22 07:28:25;;;;;;;;;4.00;3.00;;;;;11.92;90.41;100392.88;5035914;28;45574;-60
2022/12/22 07:30:51;;;;;;;;;9.33;4.00;;;;;11.90;90.69;100396.59;5035028;28;45871;-59
2022/12/22 07:33:17;;;;;;;;;3.67;3.67;;;;;11.93;90.41;100388.41;5035960;28;45350;-59
2022/12/22 07:35:42;;;;;;;;;12.33;6.33;;;;;11.89;90.39;100392.22;5035666;28;45507;-59
2022/12/22 07:38:08;;;;;;;;;15.00;2.67;;;;;12.00;90.59;100411.03;5035803;28;45530;-57
2022/12/22 07:40:34;;;;;;;;;14.67;6.00;;;;;12.02;90.62;100401.13;5034975;28;46424;-58
2022/12/22 07:43:00;;;;;;;;;9.33;4.00;;;;;12.03;90.30;100402.84;5035960;28;45273;-58
2022/12/22 07:45:26;;;;;;;;;10.33;4.00;;;;;12.05;89.82;100408.94;5036965;28;45413;-60
2022/12/22 07:47:58;;;;;;;;;9.00;6.00;;;;;12.03;89.46;100400.19;5039288;28;45636;-58
2022/12/22 07:50:23;;;;;;;;;14.33;7.00;;;;;12.01;88.68;100404.75;5036327;28;45392;-58
2022/12/22 07:52:50;;;;;;;;;12.33;4.00;;;;;11.96;88.60;100396.19;5038771;28;45450;-59
2022/12/22 07:55:15;;;;;;;;;9.67;7.00;;;;;11.95;88.56;100402.47;5039187;28;45340;-57
2022/12/22 07:57:41;;;;;;;;;11.33;7.00;;;;;11.99;87.94;100409.34;5021072;28;45400;-59
2022/12/22 08:00:07;;;;;;;;;17.00;7.00;;;;;12.03;88.30;100410.84;5038675;28;46143;-59
2022/12/22 08:02:32;;;;;;;;;14.67;4.00;;;;;12.06;87.53;100416.81;5038394;28;45145;-58
2022/12/22 08:04:58;;;;;;;;;15.00;6.00;;;;;12.09;87.02;100410.44;5021382;28;45269;-58
2022/12/22 08:07:23;;;;;;;;;7.33;4.33;;;;;12.03;86.89;100400.19;5039013;28;45324;-59
2022/12/22 08:09:49;;;;;;;;;9.33;7.00;;;;;12.14;86.57;100418.16;5038262;28;45457;-59
2022/12/22 08:12:14;;;;;;;;;9.00;9.00;;;;;12.17;86.28;100426.78;5039018;28;45316;-58
2022/12/22 08:14:44;;;;;;;;;13.00;8.00;;;;;12.08;85.63;100411.38;5054088;28;45453;-57
2022/12/22 08:17:12;;;;;;;;;13.00;8.00;;;;;12.17;85.85;100424.13;5020668;28;45482;-58
2022/12/22 08:19:38;;;;;;;;;9.00;7.00;;;;;12.22;85.98;100426.47;5038163;28;46035;-58
2022/12/22 08:22:03;;;;;;;;;9.00;5.00;;;;;12.25;85.64;100427.16;5038004;28;45205;-58
2022/12/22 08:24:29;;;;;;;;;8.33;7.00;;;;;12.25;85.18;100432.50;5024402;28;45489;-58
2022/12/22 08:27:00;;;;;;;;;9.67;5.00;;;;;12.22;84.49;100430.00;5000325;28;45306;-61
2022/12/22 08:29:41;;;;;;;;;9.00;6.67;;;;;12.31;84.46;100447.22;5018701;28;45324;-58
2022/12/22 08:32:06;;;;;;;;;11.67;6.67;;;;;12.33;84.60;100451.47;5017915;28;45418;-58
2022/12/22 08:34:32;;;;;;;;;14.33;7.00;;;;;12.32;82.96;100444.44;5018194;28;45407;-58
2022/12/22 08:37:01;;;;;;;;;14.67;7.00;;;;;12.37;84.01;100452.16;5018820;28;45355;-58
2022/12/22 08:39:31;;;;;;;;;19.33;8.00;;;;;12.42;83.52;100463.38;5016945;28;45334;-57
2022/12/22 08:41:57;;;;;;;;;13.67;8.33;;;;;12.44;83.68;100449.94;5018370;28;45407;-58
2022/12/22 08:44:26;;;;;;;;;9.33;7.00;;;;;12.38;83.59;100430.72;5017938;28;45313;-59
2022/12/22 08:46:53;;;;;;;;;18.33;8.00;;;;;12.53;83.19;100447.53;5017901;28;45283;-58
2022/12/22 08:49:19;;;;;;;;;20.33;9.33;;;;;12.55;82.78;100439.41;4999938;28;47239;-57
2022/12/22 08:51:45;;;;;;;;;12.00;10.00;;;;;12.58;82.80;100433.88;5017863;28;45490;-58
2022/12/22 08:54:11;;;;;;;;;11.67;7.67;;;;;12.58;82.90;100434.72;5018150;28;45406;-58
2022/12/22 08:56:37;;;;;;;;;8.67;6.67;;;;;12.58;82.34;100433.88;5018164;28;45459;-58
2022/12/22 08:59:04;;;;;;;;;3.33;3.00;;;;;12.58;81.57;100432.06;5033132;28;46108;-58
2022/12/22 09:01:31;;;;;;;;;20.00;12.00;;;;;12.52;82.10;100418.28;5038215;28;45306;-59
2022/12/22 09:03:57;;;;;;;;;10.67;8.00;;;;;12.62;81.12;100432.69;5037921;28;45348;-58
2022/12/22 09:06:24;;;;;;;;;19.00;10.00;;;;;12.59;81.12;100420.41;5037719;28;45558;-58
2022/12/22 09:08:58;;;;;;;;;8.33;5.00;;;;;12.67;82.22;100438.59;5019814;28;48287;-59
2022/12/22 09:11:25;;;;;;;;;18.00;7.00;;;;;12.64;80.84;100433.47;5037472;28;45310;-59
2022/12/22 09:13:52;;;;;;;;;9.67;7.67;;;;;12.62;81.33;100433.53;5019527;28;45497;-59
2022/12/22 09:16:19;;;;;;;;;13.33;7.67;;;;;12.54;82.25;100422.56;5019498;28;45451;-59
2022/12/22 09:18:45;;;;;;;;;13.33;9.00;;;;;12.61;81.15;100445.19;5037115;28;46246;-61
2022/12/22 09:21:10;;;;;;;;;10.00;3.00;;;;;12.64;81.61;100441.47;5019439;28;45578;-58
2022/12/22 09:23:35;;;;;;;;;11.00;5.33;;;;;12.67;81.83;100443.94;5037884;28;45351;-58
2022/12/22 09:26:10;;;;;;;;;7.67;7.67;;;;;12.65;80.52;100443.19;5038144;28;45221;-59
2022/12/22 09:28:36;;;;;;;;;7.67;4.00;;;;;12.73;81.18;100454.19;5020238;28;46163;-58
2022/12/22 09:31:02;;;;;;;;;18.00;10.33;;;;;12.73;80.19;100443.50;5037600;28;45233;-58
2022/12/22 09:33:28;;;;;;;;;16.33;6.67;;;;;12.75;81.02;100440.72;5037676;28;45428;-59
2022/12/22 09:35:53;;;;;;;;;15.00;9.33;;;;;12.79;81.48;100439.59;5037549;28;45296;-59
2022/12/22 09:38:19;;;;;;;;;12.33;10.67;;;;;12.81;80.15;100443.84;5019606;28;46992;-60
2022/12/22 09:40:44;;;;;;;;;16.00;7.00;;;;;12.88;80.69;100439.78;5037517;28;45527;-59
2022/12/22 09:43:17;;;;;;;;;18.00;11.33;;;;;12.90;80.39;100445.91;5037757;28;45449;-59
2022/12/22 09:45:44;;;;;;;;;12.33;3.33;;;;;12.92;80.42;100449.31;5019541;28;45574;-59
2022/12/22 09:48:12;;;;;;;;;14.67;8.00;;;;;12.94;80.38;100460.75;5019187;28;46623;-57
2022/12/22 09:50:40;;;;;;;;;11.00;8.00;;;;;12.96;80.25;100461.50;5036867;28;45596;-57
2022/12/22 09:53:17;;;;;;;;;10.33;7.33;;;;;13.02;80.92;100464.69;5036852;28;45233;-58
2022/12/22 09:55:46;;;;;;;;;19.67;8.00;;;;;13.05;80.63;100459.16;5037036;28;45407;-59
2022/12/22 09:58:31;;;;;;;;;9.67;8.33;;;;;13.04;79.79;100469.00;5036515;28;45563;-58
2022/12/22 10:01:05;;;;;;;;;16.33;10.00;;;;;13.05;80.42;100462.69;5018562;28;45427;-59
2022/12/22 10:03:40;;;;;;;;;13.67;9.33;;;;;13.06;79.67;100463.53;5036888;28;45375;-58
2022/12/22 10:06:16;;;;;;;;;9.00;4.33;;;;;13.07;79.25;100452.75;5036012;28;45334;-59
2022/12/22 10:08:42;;;;;;;;;11.33;8.00;;;;;12.95;79.20;100442.91;5018578;28;45694;-59
2022/12/22 10:11:17;;;;;;;;;21.67;7.00;;;;;13.03;80.10;100439.72;5023911;28;45353;-59
2022/12/22 10:13:43;;;;;;;;;24.33;14.00;;;;;13.07;78.98;100442.06;4999623;28;45391;-58
2022/12/22 10:16:20;;;;;;;;;14.33;10.33;;;;;13.11;79.20;100438.22;5016956;28;45454;-58
2022/12/22 10:19:10;;;;;;;;;14.33;7.00;;;;;13.14;79.44;100454.03;4998833;28;47214;-59
2022/12/22 10:21:37;;;;;;;;;13.67;7.00;;;;;13.14;79.44;100445.16;5016180;28;45538;-59
2022/12/22 10:24:27;;;;;;;;;8.00;7.00;;;;;13.11;78.74;100437.38;5017003;28;45361;-59
2022/12/22 10:26:57;;;;;;;;;16.67;9.00;;;;;13.22;79.94;100442.84;5016608;28;45336;-58
2022/12/22 10:29:23;;;;;;;;;9.67;5.00;;;;;13.26;79.63;100447.03;5015994;28;46670;-57
2022/12/22 10:32:14;;;;;;;;;14.00;7.33;;;;;13.33;78.97;100453.66;5016216;28;45482;-59
2022/12/22 10:35:05;;;;;;;;;15.33;7.67;;;;;13.30;79.15;100432.50;5016209;28;45298;-59
2022/12/22 10:37:36;;;;;;;;;10.00;5.00;;;;;13.35;78.63;100441.03;5012670;28;45271;-57
2022/12/22 10:40:17;;;;;;;;;17.33;9.33;;;;;13.39;78.74;100437.19;5015754;28;46678;-58
2022/12/22 10:42:49;;;;;;;;;16.00;8.67;;;;;13.42;78.57;100437.00;4998456;28;45948;-58
2022/12/22 10:45:18;;;;;;;;;12.67;10.33;;;;;13.42;77.39;100439.66;5015971;28;45351;-58
2022/12/22 10:47:48;;;;;;;;;16.33;12.33;;;;;13.42;77.09;100431.66;5016363;28;45535;-57
2022/12/22 10:50:14;;;;;;;;;4.33;2.67;;;;;13.39;78.05;100426.50;4998222;28;45463;-58
2022/12/22 10:52:40;;;;;;;;;10.33;8.67;;;;;13.41;78.31;100423.72;4998106;28;45278;-58
2022/12/22 10:55:21;;;;;;;;;14.67;8.67;;;;;13.53;77.87;100444.22;5016550;28;45340;-59
2022/12/22 10:57:47;;;;;;;;;13.00;9.00;;;;;13.47;77.69;100415.28;5016624;28;45438;-59
2022/12/22 11:00:27;;;;;;;;;12.67;9.00;;;;;13.51;77.65;100436.31;5016220;28;45974;-58
2022/12/22 11:02:58;;;;;;;;;10.00;9.00;;;;;13.55;76.86;100426.31;5015982;28;45295;-58
2022/12/22 11:05:23;;;;;;;;;7.67;7.67;;;;;13.54;77.30;100428.13;5015893;28;45398;-59
2022/12/22 11:07:49;;;;;;;;;12.00;8.00;;;;;13.59;77.58;100433.13;4998273;28;45318;-58
2022/12/22 11:10:32;;;;;;;;;19.00;9.00;;;;;13.61;78.27;100427.66;5020645;28;45393;-59
2022/12/22 11:13:22;;;;;;;;;15.00;8.67;;;;;13.62;77.68;100442.72;5036218;28;45858;-58
2022/12/22 11:16:26;;;;;;;;;11.67;7.33;;;;;13.60;77.21;100423.28;5035593;28;45367;-58
2022/12/22 11:19:09;;;;;;;;;10.33;9.00;;;;;13.64;76.86;100424.78;5035748;28;45332;-58
2022/12/22 11:22:02;;;;;;;;;11.67;7.67;;;;;13.62;76.48;100424.03;5035906;28;46158;-59
2022/12/22 11:24:37;;;;;;;;;13.33;8.00;;;;;13.64;77.00;100427.44;5039069;28;45544;-58
2022/12/22 11:27:30;;;;;;;;;11.00;8.67;;;;;13.62;76.72;100422.22;5039420;28;45449;-59
2022/12/22 11:30:04;;;;;;;;;14.00;8.67;;;;;13.49;77.13;100398.19;5039425;28;45265;-59
2022/12/22 11:32:57;;;;;;;;;16.67;8.67;;;;;13.62;76.04;100416.00;5020875;28;47168;-58
2022/12/22 11:35:40;;;;;;;;;4.00;4.00;;;;;13.63;77.11;100417.72;5039335;28;45359;-58
2022/12/22 11:38:19;;;;;;;;;17.00;8.67;;;;;13.64;77.09;100417.59;5039281;28;45426;-58
2022/12/22 11:40:48;;;;;;;;;12.33;7.67;;;;;13.68;76.89;100418.25;5039176;28;45356;-57
2022/12/22 11:43:13;;;;;;;;;15.67;7.00;;;;;13.67;76.83;100419.19;5037923;28;45621;-58
2022/12/22 11:46:01;;;;;;;;;15.67;9.00;;;;;13.71;76.62;100416.22;5038935;28;45431;-57
2022/12/22 11:48:50;;;;;;;;;10.67;7.00;;;;;13.75;76.75;100407.00;5038793;28;45475;-58
2022/12/22 11:51:41;;;;;;;;;13.33;9.67;;;;;13.70;76.83;100403.81;5038826;28;45541;-58
2022/12/22 11:54:27;;;;;;;;;18.33;10.33;;;;;13.72;76.70;100406.38;5038160;28;46398;-58
2022/12/22 11:57:10;;;;;;;;;16.00;8.67;;;;;13.70;76.71;100397.63;5039523;28;45356;-59
2022/12/22 11:59:54;;;;;;;;;12.67;10.00;;;;;13.76;76.49;100398.03;5019822;28;45290;-58
2022/12/22 12:02:25;;;;;;;;;14.00;11.00;;;;;13.77;76.09;100399.72;5019611;28;45501;-58
2022/12/22 12:05:12;;;;;;;;;6.67;1.00;;;;;13.80;75.82;100399.53;5018928;28;46292;-58
2022/12/22 12:07:41;;;;;;;;;16.00;9.67;;;;;13.86;76.31;100387.53;5019506;28;45309;-59
2022/12/22 12:10:16;;;;;;;;;13.00;10.33;;;;;13.92;75.62;100386.22;5020011;28;45411;-59
2022/12/22 12:13:12;;;;;;;;;11.00;9.67;;;;;13.92;75.65;100386.22;5019766;28;45490;-58
2022/12/22 12:15:47;;;;;;;;;11.67;7.67;;;;;13.90;75.03;100377.44;5019065;28;46270;-58
2022/12/22 12:18:40;;;;;;;;;20.67;9.33;;;;;13.92;75.25;100376.38;5018596;28;45296;-59
2022/12/22 12:21:16;;;;;;;;;16.00;8.00;;;;;13.91;74.37;100379.16;5018760;28;45358;-58
2022/12/22 12:23:59;;;;;;;;;24.33;11.00;;;;;13.96;76.03;100369.84;5018459;28;45451;-58
2022/12/22 12:26:31;;;;;;;;;14.67;8.33;;;;;13.95;75.84;100367.28;5018093;28;45354;-58
2022/12/22 12:29:02;;;;;;;;;17.33;11.33;;;;;13.95;74.92;100368.16;5017474;28;45433;-58
2022/12/22 12:31:33;;;;;;;;;21.67;10.33;;;;;13.97;75.12;100368.88;5018225;28;45845;-62
2022/12/22 12:34:01;;;;;;;;;15.67;7.00;;;;;13.97;75.42;100352.84;5017962;28;45258;-58
2022/12/22 12:36:38;;;;;;;;;15.67;9.67;;;;;13.99;75.07;100352.72;5000181;28;45550;-61
2022/12/22 12:39:18;;;;;;;;;16.00;9.00;;;;;13.95;75.62;100354.78;5018158;28;45440;-58
2022/12/22 12:42:01;;;;;;;;;9.00;6.33;;;;;13.94;75.99;100347.72;5018576;28;45341;-58
2022/12/22 12:44:33;;;;;;;;;13.00;8.00;;;;;13.94;76.32;100347.72;5018663;28;45616;-58
2022/12/22 12:47:24;;;;;;;;;10.33;6.33;;;;;13.90;76.08;100335.53;5000682;28;45647;-58
2022/12/22 12:50:27;;;;;;;;;15.00;10.33;;;;;13.87;77.00;100335.75;5018229;28;45395;-57
2022/12/22 12:53:07;;;;;;;;;12.00;8.33;;;;;13.83;76.30;100329.78;5018029;28;45340;-58
2022/12/22 12:55:50;;;;;;;;;13.33;9.00;;;;;13.77;76.84;100327.56;5019097;28;45175;-58
2022/12/22 12:58:34;;;;;;;;;12.00;10.33;;;;;13.73;77.04;100322.56;5027840;28;45295;-59
2022/12/22 13:01:02;;;;;;;;;15.00;5.33;;;;;13.71;76.96;100316.47;5037903;28;45393;-59
2022/12/22 13:03:27;;;;;;;;;10.67;8.33;;;;;13.74;77.63;100313.56;5037935;28;45333;-59
2022/12/22 13:05:54;;;;;;;;;10.00;10.00;;;;;13.71;77.98;100309.31;5037849;28;45620;-58
2022/12/22 13:08:28;;;;;;;;;17.67;8.00;;;;;13.63;78.62;100319.69;5037383;28;46506;-57
2022/12/22 13:10:53;;;;;;;;;9.00;8.00;;;;;13.57;79.86;100313.00;5037531;28;45257;-58
2022/12/22 13:13:21;;;;;;;;;13.00;8.67;;;;;13.53;79.92;100305.31;5037848;28;45236;-57
2022/12/22 13:16:08;;;;;;;;;8.00;7.33;;;;;13.49;80.93;100296.66;5037932;28;45534;-57
2022/12/22 13:18:33;;;;;;;;;14.67;9.67;;;;;13.45;81.17;100300.53;5037617;28;46255;-57
2022/12/22 13:21:04;;;;;;;;;14.00;8.00;;;;;13.35;81.50;100299.47;5037717;28;45331;-59
2022/12/22 13:23:37;;;;;;;;;9.33;4.00;;;;;13.24;82.45;100288.72;5037760;28;45421;-59
2022/12/22 13:26:08;;;;;;;;;13.33;8.67;;;;;13.29;83.78;100297.28;5037500;28;45435;-58
2022/12/22 13:28:36;;;;;;;;;13.67;8.33;;;;;13.17;83.80;100279.41;5037340;28;45403;-59
2022/12/22 13:31:11;;;;;;;;;13.00;8.33;;;;;13.16;84.17;100296.41;5037407;28;45272;-59
2022/12/22 13:33:38;;;;;;;;;8.67;8.00;;;;;13.10;85.09;100276.31;5037183;28;45236;-58
2022/12/22 13:36:07;;;;;;;;;12.33;7.33;;;;;13.09;85.46;100284.44;5037198;28;45569;-58
2022/12/22 13:38:36;;;;;;;;;10.67;7.00;;;;;12.99;85.52;100277.09;5018393;28;47217;-58
2022/12/22 13:41:15;;;;;;;;;16.00;9.33;;;;;12.98;86.17;100275.38;5037411;28;45471;-58
2022/12/22 13:43:43;;;;;;;;;11.67;9.00;;;;;12.95;85.80;100272.09;5038484;28;45403;-58
2022/12/22 13:46:09;;;;;;;;;16.00;7.00;;;;;12.90;86.31;100272.41;5018784;28;45327;-58
2022/12/22 13:48:42;;;;;;;;;11.67;9.00;;;;;12.90;87.73;100264.41;5019243;28;45353;-58
2022/12/22 13:51:21;;;;;;;;;14.00;8.00;;;;;12.84;88.87;100264.81;5036853;28;45375;-57
2022/12/22 13:53:53;;;;;;;;;15.67;8.67;;;;;12.81;87.55;100242.84;5037128;28;45347;-57
2022/12/22 13:56:22;;;;;;;;;7.67;7.67;;;;;12.83;86.94;100255.13;5036782;28;45421;-58
2022/12/22 13:58:54;;;;;;;;;18.33;9.00;;;;;12.81;87.77;100254.38;5021857;28;45947;-57
2022/12/22 14:01:19;;;;;;;;;13.00;11.33;;;;;12.82;87.86;100249.88;5016735;28;45410;-58
2022/12/22 14:04:02;;;;;;;;;17.33;10.00;;;;;12.82;88.00;100250.75;5017150;28;45327;-58
2022/12/22 14:06:31;;;;;;;;;10.67;7.67;;;;;12.77;89.61;100244.88;5016956;28;45488;-58
2022/12/22 14:09:17;;;;;;;;;8.33;7.00;;;;;12.76;88.08;100240.53;5016623;28;45455;-58
2022/12/22 14:11:47;;;;;;;;;9.33;9.00;;;;;12.68;91.86;100237.53;5016604;28;45340;-58
2022/12/22 14:14:17;;;;;;;;;4.33;4.00;;;;;12.68;89.55;100235.72;5016734;28;45344;-58
2022/12/22 14:16:48;;;;;;;;;11.00;7.67;;;;;12.72;89.89;100236.34;5016820;28;45272;-56
2022/12/22 14:19:15;;;;;;;;;9.33;4.67;;;;;12.73;89.42;100224.69;4999037;28;47799;-58
2022/12/22 14:21:43;;;;;;;;;12.67;7.00;;;;;12.68;89.74;100229.53;4999103;28;45346;-57
2022/12/22 14:24:17;;;;;;;;;8.33;4.67;;;;;12.63;90.38;100219.19;4999070;28;45461;-57
2022/12/22 14:26:43;;;;;;;;;7.00;4.33;;;;;12.63;90.34;100223.63;5016443;28;45734;-58
2022/12/22 14:29:14;;;;;;;;;7.33;6.33;;;;;12.61;91.09;100220.22;4998453;28;47266;-57
2022/12/22 14:31:58;;;;;;;;;12.33;8.00;;;;;12.61;91.42;100217.56;5016467;28;45745;-56
2022/12/22 14:34:32;;;;;;;;;15.33;4.67;;;;;12.57;91.06;100205.41;5016587;28;45442;-57
2022/12/22 14:37:00;;;;;;;;;15.33;8.00;;;;;12.57;92.20;100206.25;5016457;28;45369;-57
2022/12/22 14:39:31;;;;;;;;;8.33;4.33;;;;;12.54;92.33;100202.97;4998623;28;46186;-58
2022/12/22 14:42:02;;;;;;;;;7.00;5.00;;;;;12.52;92.17;100211.06;5016149;28;45401;-56
2022/12/22 14:44:31;;;;;;;;;10.33;3.67;;;;;12.53;93.02;100198.59;5016347;28;45325;-58
2022/12/22 14:47:16;;;;;;;;;5.00;5.00;;;;;12.53;93.52;100182.59;5016499;28;45351;-57
2022/12/22 14:49:47;;;;;;;;;9.33;7.67;;;;;12.51;93.59;100180.03;5016174;28;45325;-57
2022/12/22 14:52:21;;;;;;;;;2.33;0.67;;;;;12.54;93.13;100173.63;5015977;28;45238;-60
2022/12/22 14:54:49;;;;;;;;;14.67;5.67;;;;;12.48;93.04;100144.69;5016759;28;45315;-59
2022/12/22 14:57:23;;;;;;;;;7.00;5.33;;;;;12.57;93.33;100162.72;4998495;28;45291;-56
2022/12/22 15:00:03;;;;;;;;;12.00;8.33;;;;;12.56;92.57;100153.03;5016544;28;46228;-57
2022/12/22 15:02:33;;;;;;;;;10.33;5.33;;;;;12.57;92.68;100146.72;5015841;28;45438;-57
2022/12/22 15:05:12;;;;;;;;;7.33;5.00;;;;;12.56;92.44;100143.19;5016085;28;44684;-58
2022/12/22 15:07:48;;;;;;;;;9.00;5.67;;;;;12.55;93.25;100141.50;5015168;28;45548;-58
2022/12/22 15:10:13;;;;;;;;;13.00;8.00;;;;;12.52;93.21;100123.06;5020646;28;46394;-58
2022/12/22 15:12:39;;;;;;;;;4.00;4.00;;;;;12.57;93.64;100128.06;5035893;28;45351;-58